Delta Virtual Airport Information Service

Raleigh-Durham International Airport

ICAO: KRDU Country: United States
Latitude: 35.8776 Longitude: -78.7874
Latest Arrival : DALJUMP (KLGA-KRDU) Latest Departure : DAC1661 (KRDU-KDFW)


WX CaptureLIVE
Data provided by noaa.gov | Fetched at 17:23:51

METAR : KRDU 062151Z 15007KT 10SM FEW010 FEW035 BKN140 OVC250 24/23 A3005 RMK AO2 RAE15 SLP171 CB DSNT E AND SW-NW P0000 T02440228 $

TAF : KRDU 062016Z 0620/0718 VRB05KT P6SM VCTS SCT035CB OVC080 TEMPO 0620/0621 VRB15G25KT 6SM -TSRA BKN035CB FM070600 00000KT P6SM BKN250 TEMPO 0709/0713 4SM BR BKN007 FM071300 20005KT P6SM BKN015 FM071600 22007KT P6SM BKN050


Runway Data for KRDU
Data provided by openaviationdata.com

Runway ID Mag Var Hdg Length Elevation Surface ILS Freq ILS Id ILS Slope
05L -8 53° 10001 ft 435 ft Concrete 109.1 IGKK 3
05R -8 53° 7501 ft 435 ft Asphalt 109.5 IRDU 3
14 -8 143° 3570 ft 435 ft Asphalt -- -- --
23L -8 233° 7501 ft 435 ft Asphalt 108.5 ILEI 3
23R -8 233° 10001 ft 435 ft Concrete 111.7 IDMP 3
32 -8 323° 3570 ft 435 ft Asphalt -- -- --

Raleigh-Durham International Airport, United States
Use only for reference purposes



Not for navigational purposes.